Terminal Aerodrome Forecast
Issued by NWS

Home | Current Version | Previous Version | Text Only | Print | Product List | Glossary On
Versions: 1 2 3 4 5 6 7 8 9 10 11 12 13 14 15 16 17 18 19 20 21 22 23 24 25
000
FTUS45 KBOU 261015 AAB
TAFBJC
TAF AMD
KBJC 261015Z 2610/2706 04010KT P6SM FEW080
     FM261200 16007KT P6SM SCT200
     FM261600 27007KT P6SM SCT200
     FM261900 15007KT P6SM SCT200
     FM262200 28014G24KT P6SM SCT200
     FM270200 27010KT P6SM SCT200=

USA.gov is the U.S. government's official web portal to all federal, state and local government web resources and services.